Cheboygan, Michigan
Current Conditions -  °F | °C
As of 3:56 PM on Tuesday 21 Oct 2014 (Local Time) from KSLH Reporting Station
Clear Clear  
Wind Chill: 42°   Ceiling: Unl
Heat Index: 46°   Visibility: 10mi
Dew Point: 29°   Wind: 6mph
Humidity: 52%   Direction: 20°NNE
Pressure: 30.21"   Gusts: NA
Location:  45.65°N, 84.47°W
Report Text: KSLH 211956Z AUTO 02005KT 10SM CLR 07/M01 A3021 RMK AO2 T00751018
Loading
Personal Weather Stations






























Interactive Weather Map
Tropical Storm Tracking
New forecast layout! Learn more

10-Day Weather Forecast

Advertisements
Track Severe Weather on mobile